sensor_id;sensor_type;location;lat;lon;timestamp;pressure;altitude;pressure_sealevel;temperature
20092;BMP180;10205;49.678;6.560;2024-02-21T00:00:31;100882.00;;;13.60
20092;BMP180;10205;49.678;6.560;2024-02-21T00:02:58;100877.00;;;13.60
20092;BMP180;10205;49.678;6.560;2024-02-21T00:05:27;100868.00;;;13.60
20092;BMP180;10205;49.678;6.560;2024-02-21T00:07:54;100864.00;;;13.60
20092;BMP180;10205;49.678;6.560;2024-02-21T00:10:23;100873.00;;;13.60
20092;BMP180;10205;49.678;6.560;2024-02-21T00:12:50;100864.00;;;13.60
20092;BMP180;10205;49.678;6.560;2024-02-21T00:15:18;100847.00;;;13.50
20092;BMP180;10205;49.678;6.560;2024-02-21T00:17:45;100843.00;;;13.50
20092;BMP180;10205;49.678;6.560;2024-02-21T00:20:12;100847.00;;;13.50
20092;BMP180;10205;49.678;6.560;2024-02-21T00:22:39;100844.00;;;13.50
20092;BMP180;10205;49.678;6.560;2024-02-21T00:25:07;100839.00;;;13.40
20092;BMP180;10205;49.678;6.560;2024-02-21T00:27:36;100835.00;;;13.40
20092;BMP180;10205;49.678;6.560;2024-02-21T00:30:04;100839.00;;;13.40
20092;BMP180;10205;49.678;6.560;2024-02-21T00:32:31;100827.00;;;13.40
20092;BMP180;10205;49.678;6.560;2024-02-21T00:35:00;100828.00;;;13.40
20092;BMP180;10205;49.678;6.560;2024-02-21T00:37:27;100831.00;;;13.40
20092;BMP180;10205;49.678;6.560;2024-02-21T00:39:55;100823.00;;;13.40
20092;BMP180;10205;49.678;6.560;2024-02-21T00:42:22;100823.00;;;13.40
20092;BMP180;10205;49.678;6.560;2024-02-21T00:44:50;100809.00;;;13.40
20092;BMP180;10205;49.678;6.560;2024-02-21T00:47:17;100815.00;;;13.40
20092;BMP180;10205;49.678;6.560;2024-02-21T00:49:45;100820.00;;;13.30
20092;BMP180;10205;49.678;6.560;2024-02-21T00:52:12;100824.00;;;13.30
20092;BMP180;10205;49.678;6.560;2024-02-21T00:54:39;100830.00;;;13.30
20092;BMP180;10205;49.678;6.560;2024-02-21T00:57:06;100826.00;;;13.30
20092;BMP180;10205;49.678;6.560;2024-02-21T00:59:33;100808.00;;;13.30
20092;BMP180;10205;49.678;6.560;2024-02-21T01:02:01;100816.00;;;13.30
20092;BMP180;10205;49.678;6.560;2024-02-21T01:04:28;100799.00;;;13.30
20092;BMP180;10205;49.678;6.560;2024-02-21T01:06:55;100792.00;;;13.30
20092;BMP180;10205;49.678;6.560;2024-02-21T01:09:22;100796.00;;;13.30
20092;BMP180;10205;49.678;6.560;2024-02-21T01:11:49;100778.00;;;13.30
20092;BMP180;10205;49.678;6.560;2024-02-21T01:14:17;100773.00;;;13.20
20092;BMP180;10205;49.678;6.560;2024-02-21T01:16:44;100776.00;;;13.20
20092;BMP180;10205;49.678;6.560;2024-02-21T01:19:12;100761.00;;;13.20
20092;BMP180;10205;49.678;6.560;2024-02-21T01:21:39;100768.00;;;13.20
20092;BMP180;10205;49.678;6.560;2024-02-21T01:24:06;100775.00;;;13.20
20092;BMP180;10205;49.678;6.560;2024-02-21T01:26:33;100778.00;;;13.10
20092;BMP180;10205;49.678;6.560;2024-02-21T01:29:00;100791.00;;;13.10
20092;BMP180;10205;49.678;6.560;2024-02-21T01:31:27;100788.00;;;13.10
20092;BMP180;10205;49.678;6.560;2024-02-21T01:33:54;100784.00;;;13.10
20092;BMP180;10205;49.678;6.560;2024-02-21T01:36:23;100794.00;;;13.10
20092;BMP180;10205;49.678;6.560;2024-02-21T01:38:50;100799.00;;;13.00
20092;BMP180;10205;49.678;6.560;2024-02-21T01:41:17;100796.00;;;13.00
20092;BMP180;10205;49.678;6.560;2024-02-21T01:43:44;100786.00;;;13.00
20092;BMP180;10205;49.678;6.560;2024-02-21T01:46:11;100776.00;;;12.90
20092;BMP180;10205;49.678;6.560;2024-02-21T01:48:39;100783.00;;;12.90
20092;BMP180;10205;49.678;6.560;2024-02-21T01:51:06;100782.00;;;12.90
20092;BMP180;10205;49.678;6.560;2024-02-21T01:53:37;100769.00;;;12.90
20092;BMP180;10205;49.678;6.560;2024-02-21T01:56:06;100759.00;;;12.90
20092;BMP180;10205;49.678;6.560;2024-02-21T01:58:36;100774.00;;;12.90
20092;BMP180;10205;49.678;6.560;2024-02-21T02:01:04;100745.00;;;12.90
20092;BMP180;10205;49.678;6.560;2024-02-21T02:03:32;100727.00;;;12.90
20092;BMP180;10205;49.678;6.560;2024-02-21T02:06:00;100725.00;;;12.90
20092;BMP180;10205;49.678;6.560;2024-02-21T02:08:27;100712.00;;;12.90
20092;BMP180;10205;49.678;6.560;2024-02-21T02:10:56;100711.00;;;12.80
20092;BMP180;10205;49.678;6.560;2024-02-21T02:13:24;100707.00;;;12.80
20092;BMP180;10205;49.678;6.560;2024-02-21T02:15:51;100698.00;;;12.80
20092;BMP180;10205;49.678;6.560;2024-02-21T02:18:20;100704.00;;;12.80
20092;BMP180;10205;49.678;6.560;2024-02-21T02:20:47;100703.00;;;12.80
20092;BMP180;10205;49.678;6.560;2024-02-21T02:23:23;100695.00;;;12.80
20092;BMP180;10205;49.678;6.560;2024-02-21T02:25:51;100700.00;;;12.80
20092;BMP180;10205;49.678;6.560;2024-02-21T02:28:19;100696.00;;;12.80
20092;BMP180;10205;49.678;6.560;2024-02-21T02:30:46;100683.00;;;12.80
20092;BMP180;10205;49.678;6.560;2024-02-21T02:33:13;100690.00;;;12.70
20092;BMP180;10205;49.678;6.560;2024-02-21T02:35:41;100705.00;;;12.70
20092;BMP180;10205;49.678;6.560;2024-02-21T02:38:08;100678.00;;;12.70
20092;BMP180;10205;49.678;6.560;2024-02-21T02:40:38;100681.00;;;12.80
20092;BMP180;10205;49.678;6.560;2024-02-21T02:43:06;100680.00;;;12.80
20092;BMP180;10205;49.678;6.560;2024-02-21T02:45:33;100675.00;;;12.80
20092;BMP180;10205;49.678;6.560;2024-02-21T02:48:00;100681.00;;;12.80
20092;BMP180;10205;49.678;6.560;2024-02-21T02:50:28;100686.00;;;12.80
20092;BMP180;10205;49.678;6.560;2024-02-21T02:52:55;100677.00;;;12.70
20092;BMP180;10205;49.678;6.560;2024-02-21T02:55:22;100679.00;;;12.70
20092;BMP180;10205;49.678;6.560;2024-02-21T02:57:51;100681.00;;;12.70
20092;BMP180;10205;49.678;6.560;2024-02-21T03:00:18;100669.00;;;12.70
20092;BMP180;10205;49.678;6.560;2024-02-21T03:02:48;100663.00;;;12.70
20092;BMP180;10205;49.678;6.560;2024-02-21T03:05:18;100655.00;;;12.60
20092;BMP180;10205;49.678;6.560;2024-02-21T03:07:46;100664.00;;;12.60
20092;BMP180;10205;49.678;6.560;2024-02-21T03:10:15;100660.00;;;12.60
20092;BMP180;10205;49.678;6.560;2024-02-21T03:12:43;100642.00;;;12.60
20092;BMP180;10205;49.678;6.560;2024-02-21T03:15:12;100649.00;;;12.60
20092;BMP180;10205;49.678;6.560;2024-02-21T03:17:40;100639.00;;;12.60
20092;BMP180;10205;49.678;6.560;2024-02-21T03:20:08;100645.00;;;12.60
20092;BMP180;10205;49.678;6.560;2024-02-21T03:22:35;100641.00;;;12.60
20092;BMP180;10205;49.678;6.560;2024-02-21T03:25:04;100657.00;;;12.60
20092;BMP180;10205;49.678;6.560;2024-02-21T03:27:32;100655.00;;;12.60
20092;BMP180;10205;49.678;6.560;2024-02-21T03:29:59;100642.00;;;12.60
20092;BMP180;10205;49.678;6.560;2024-02-21T03:32:28;100618.00;;;12.60
20092;BMP180;10205;49.678;6.560;2024-02-21T03:34:55;100630.00;;;12.70
20092;BMP180;10205;49.678;6.560;2024-02-21T03:37:22;100608.00;;;12.70
20092;BMP180;10205;49.678;6.560;2024-02-21T03:39:49;100606.00;;;12.60
20092;BMP180;10205;49.678;6.560;2024-02-21T03:42:17;100593.00;;;12.60
20092;BMP180;10205;49.678;6.560;2024-02-21T03:44:44;100601.00;;;12.60
20092;BMP180;10205;49.678;6.560;2024-02-21T03:47:11;100593.00;;;12.60
20092;BMP180;10205;49.678;6.560;2024-02-21T03:49:39;100601.00;;;12.60
20092;BMP180;10205;49.678;6.560;2024-02-21T03:52:06;100596.00;;;12.50
20092;BMP180;10205;49.678;6.560;2024-02-21T03:54:33;100599.00;;;12.50
20092;BMP180;10205;49.678;6.560;2024-02-21T03:57:00;100598.00;;;12.50
20092;BMP180;10205;49.678;6.560;2024-02-21T03:59:28;100590.00;;;12.50
20092;BMP180;10205;49.678;6.560;2024-02-21T04:01:55;100581.00;;;12.50
20092;BMP180;10205;49.678;6.560;2024-02-21T04:04:22;100594.00;;;12.50
20092;BMP180;10205;49.678;6.560;2024-02-21T04:06:51;100579.00;;;12.50
20092;BMP180;10205;49.678;6.560;2024-02-21T04:09:20;100564.00;;;12.50
20092;BMP180;10205;49.678;6.560;2024-02-21T04:11:47;100562.00;;;12.50
20092;BMP180;10205;49.678;6.560;2024-02-21T04:14:14;100567.00;;;12.50
20092;BMP180;10205;49.678;6.560;2024-02-21T04:16:41;100564.00;;;12.50
20092;BMP180;10205;49.678;6.560;2024-02-21T04:19:08;100567.00;;;12.50
20092;BMP180;10205;49.678;6.560;2024-02-21T04:21:36;100563.00;;;12.60
20092;BMP180;10205;49.678;6.560;2024-02-21T04:24:07;100553.00;;;12.60
20092;BMP180;10205;49.678;6.560;2024-02-21T04:26:34;100550.00;;;12.60
20092;BMP180;10205;49.678;6.560;2024-02-21T04:29:01;100540.00;;;12.60
20092;BMP180;10205;49.678;6.560;2024-02-21T04:31:29;100535.00;;;12.50
20092;BMP180;10205;49.678;6.560;2024-02-21T04:33:56;100540.00;;;12.50
20092;BMP180;10205;49.678;6.560;2024-02-21T04:36:23;100534.00;;;12.50
20092;BMP180;10205;49.678;6.560;2024-02-21T04:38:50;100547.00;;;12.50
20092;BMP180;10205;49.678;6.560;2024-02-21T04:41:19;100545.00;;;12.50
20092;BMP180;10205;49.678;6.560;2024-02-21T04:43:46;100558.00;;;12.50
20092;BMP180;10205;49.678;6.560;2024-02-21T04:46:13;100563.00;;;12.50
20092;BMP180;10205;49.678;6.560;2024-02-21T04:48:41;100562.00;;;12.40
20092;BMP180;10205;49.678;6.560;2024-02-21T04:51:08;100550.00;;;12.50
20092;BMP180;10205;49.678;6.560;2024-02-21T04:53:35;100556.00;;;12.40
20092;BMP180;10205;49.678;6.560;2024-02-21T04:56:02;100545.00;;;12.40
20092;BMP180;10205;49.678;6.560;2024-02-21T04:58:31;100552.00;;;12.40
20092;BMP180;10205;49.678;6.560;2024-02-21T05:00:58;100548.00;;;12.40
20092;BMP180;10205;49.678;6.560;2024-02-21T05:03:25;100545.00;;;12.40
20092;BMP180;10205;49.678;6.560;2024-02-21T05:05:52;100539.00;;;12.40
20092;BMP180;10205;49.678;6.560;2024-02-21T05:08:19;100543.00;;;12.40
20092;BMP180;10205;49.678;6.560;2024-02-21T05:10:46;100523.00;;;12.40
20092;BMP180;10205;49.678;6.560;2024-02-21T05:13:13;100526.00;;;12.40
20092;BMP180;10205;49.678;6.560;2024-02-21T05:15:42;100532.00;;;12.40
20092;BMP180;10205;49.678;6.560;2024-02-21T05:18:09;100530.00;;;12.40
20092;BMP180;10205;49.678;6.560;2024-02-21T05:20:36;100529.00;;;12.40
20092;BMP180;10205;49.678;6.560;2024-02-21T05:23:04;100527.00;;;12.40
20092;BMP180;10205;49.678;6.560;2024-02-21T05:25:31;100528.00;;;12.40
20092;BMP180;10205;49.678;6.560;2024-02-21T05:27:58;100523.00;;;12.40
20092;BMP180;10205;49.678;6.560;2024-02-21T05:30:28;100528.00;;;12.40
20092;BMP180;10205;49.678;6.560;2024-02-21T05:32:57;100522.00;;;12.40
20092;BMP180;10205;49.678;6.560;2024-02-21T05:35:28;100519.00;;;12.30
20092;BMP180;10205;49.678;6.560;2024-02-21T05:37:55;100520.00;;;12.30
20092;BMP180;10205;49.678;6.560;2024-02-21T05:40:22;100513.00;;;12.30
20092;BMP180;10205;49.678;6.560;2024-02-21T05:42:49;100516.00;;;12.30
20092;BMP180;10205;49.678;6.560;2024-02-21T05:45:18;100511.00;;;12.30
20092;BMP180;10205;49.678;6.560;2024-02-21T05:47:45;100520.00;;;12.30
20092;BMP180;10205;49.678;6.560;2024-02-21T05:50:13;100513.00;;;12.30
20092;BMP180;10205;49.678;6.560;2024-02-21T05:52:40;100509.00;;;12.30
20092;BMP180;10205;49.678;6.560;2024-02-21T05:55:08;100508.00;;;12.30
20092;BMP180;10205;49.678;6.560;2024-02-21T05:57:35;100509.00;;;12.30
20092;BMP180;10205;49.678;6.560;2024-02-21T06:00:05;100505.00;;;12.30
20092;BMP180;10205;49.678;6.560;2024-02-21T06:02:32;100512.00;;;12.30
20092;BMP180;10205;49.678;6.560;2024-02-21T06:05:01;100498.00;;;12.30
20092;BMP180;10205;49.678;6.560;2024-02-21T06:07:30;100497.00;;;12.30
20092;BMP180;10205;49.678;6.560;2024-02-21T06:09:56;100479.00;;;12.30
20092;BMP180;10205;49.678;6.560;2024-02-21T06:12:24;100496.00;;;12.30
20092;BMP180;10205;49.678;6.560;2024-02-21T06:14:50;100484.00;;;12.30
20092;BMP180;10205;49.678;6.560;2024-02-21T06:17:18;100486.00;;;12.30
20092;BMP180;10205;49.678;6.560;2024-02-21T06:19:45;100487.00;;;12.30
20092;BMP180;10205;49.678;6.560;2024-02-21T06:22:12;100487.00;;;12.30
20092;BMP180;10205;49.678;6.560;2024-02-21T06:24:41;100485.00;;;12.30
20092;BMP180;10205;49.678;6.560;2024-02-21T06:27:08;100476.00;;;12.30
20092;BMP180;10205;49.678;6.560;2024-02-21T06:29:37;100473.00;;;12.30
20092;BMP180;10205;49.678;6.560;2024-02-21T06:32:04;100472.00;;;12.30
20092;BMP180;10205;49.678;6.560;2024-02-21T06:34:32;100476.00;;;12.30
20092;BMP180;10205;49.678;6.560;2024-02-21T06:36:59;100473.00;;;12.30
20092;BMP180;10205;49.678;6.560;2024-02-21T06:39:26;100463.00;;;12.30
20092;BMP180;10205;49.678;6.560;2024-02-21T06:41:56;100463.00;;;12.30
20092;BMP180;10205;49.678;6.560;2024-02-21T06:44:23;100475.00;;;12.30
20092;BMP180;10205;49.678;6.560;2024-02-21T06:46:50;100458.00;;;12.20
20092;BMP180;10205;49.678;6.560;2024-02-21T06:49:17;100462.00;;;12.20
20092;BMP180;10205;49.678;6.560;2024-02-21T06:51:44;100472.00;;;12.20
20092;BMP180;10205;49.678;6.560;2024-02-21T06:54:11;100480.00;;;12.20
20092;BMP180;10205;49.678;6.560;2024-02-21T06:56:40;100471.00;;;12.20
20092;BMP180;10205;49.678;6.560;2024-02-21T06:59:08;100466.00;;;12.20
20092;BMP180;10205;49.678;6.560;2024-02-21T07:01:36;100463.00;;;12.20
20092;BMP180;10205;49.678;6.560;2024-02-21T07:04:03;100455.00;;;12.20
20092;BMP180;10205;49.678;6.560;2024-02-21T07:06:30;100456.00;;;12.20
20092;BMP180;10205;49.678;6.560;2024-02-21T07:08:57;100467.00;;;12.10
20092;BMP180;10205;49.678;6.560;2024-02-21T07:11:24;100470.00;;;12.20
20092;BMP180;10205;49.678;6.560;2024-02-21T07:13:52;100457.00;;;12.20
20092;BMP180;10205;49.678;6.560;2024-02-21T07:16:21;100460.00;;;12.20
20092;BMP180;10205;49.678;6.560;2024-02-21T07:18:48;100460.00;;;12.20
20092;BMP180;10205;49.678;6.560;2024-02-21T07:21:15;100463.00;;;12.20
20092;BMP180;10205;49.678;6.560;2024-02-21T07:23:42;100455.00;;;12.10
20092;BMP180;10205;49.678;6.560;2024-02-21T07:26:09;100451.00;;;12.10
20092;BMP180;10205;49.678;6.560;2024-02-21T07:28:36;100457.00;;;12.10
20092;BMP180;10205;49.678;6.560;2024-02-21T07:31:03;100449.00;;;12.10
20092;BMP180;10205;49.678;6.560;2024-02-21T07:33:32;100435.00;;;12.10
20092;BMP180;10205;49.678;6.560;2024-02-21T07:36:01;100440.00;;;12.10
20092;BMP180;10205;49.678;6.560;2024-02-21T07:38:28;100449.00;;;12.10
20092;BMP180;10205;49.678;6.560;2024-02-21T07:40:55;100445.00;;;12.10
20092;BMP180;10205;49.678;6.560;2024-02-21T07:43:22;100443.00;;;12.10
20092;BMP180;10205;49.678;6.560;2024-02-21T07:45:49;100445.00;;;12.10
20092;BMP180;10205;49.678;6.560;2024-02-21T07:48:16;100450.00;;;12.10
20092;BMP180;10205;49.678;6.560;2024-02-21T07:50:46;100460.00;;;12.10
20092;BMP180;10205;49.678;6.560;2024-02-21T07:53:15;100451.00;;;12.10
20092;BMP180;10205;49.678;6.560;2024-02-21T07:55:42;100458.00;;;12.10
20092;BMP180;10205;49.678;6.560;2024-02-21T07:58:09;100464.00;;;12.10
20092;BMP180;10205;49.678;6.560;2024-02-21T08:00:36;100467.00;;;12.10
20092;BMP180;10205;49.678;6.560;2024-02-21T08:03:03;100462.00;;;12.10
20092;BMP180;10205;49.678;6.560;2024-02-21T08:05:34;100454.00;;;12.10
20092;BMP180;10205;49.678;6.560;2024-02-21T08:08:03;100430.00;;;12.10
20092;BMP180;10205;49.678;6.560;2024-02-21T08:10:30;100450.00;;;12.10
20092;BMP180;10205;49.678;6.560;2024-02-21T08:12:57;100440.00;;;12.10
20092;BMP180;10205;49.678;6.560;2024-02-21T08:15:24;100440.00;;;12.10
20092;BMP180;10205;49.678;6.560;2024-02-21T08:17:55;100439.00;;;12.10
20092;BMP180;10205;49.678;6.560;2024-02-21T08:20:25;100441.00;;;12.10
20092;BMP180;10205;49.678;6.560;2024-02-21T08:22:52;100428.00;;;12.10
20092;BMP180;10205;49.678;6.560;2024-02-21T08:25:20;100408.00;;;12.10
20092;BMP180;10205;49.678;6.560;2024-02-21T08:27:47;100408.00;;;12.10
20092;BMP180;10205;49.678;6.560;2024-02-21T08:30:15;100399.00;;;12.10
20092;BMP180;10205;49.678;6.560;2024-02-21T08:32:42;100404.00;;;12.10
20092;BMP180;10205;49.678;6.560;2024-02-21T08:35:09;100393.00;;;12.10
20092;BMP180;10205;49.678;6.560;2024-02-21T08:37:37;100403.00;;;12.10
20092;BMP180;10205;49.678;6.560;2024-02-21T08:40:06;100392.00;;;12.10
20092;BMP180;10205;49.678;6.560;2024-02-21T08:42:36;100388.00;;;12.10
20092;BMP180;10205;49.678;6.560;2024-02-21T08:45:07;100392.00;;;12.10
20092;BMP180;10205;49.678;6.560;2024-02-21T08:47:34;100387.00;;;12.10
20092;BMP180;10205;49.678;6.560;2024-02-21T08:50:02;100387.00;;;12.10
20092;BMP180;10205;49.678;6.560;2024-02-21T08:52:31;100388.00;;;12.10
20092;BMP180;10205;49.678;6.560;2024-02-21T08:54:59;100380.00;;;12.10
20092;BMP180;10205;49.678;6.560;2024-02-21T08:57:26;100371.00;;;12.10
20092;BMP180;10205;49.678;6.560;2024-02-21T08:59:55;100363.00;;;12.10
20092;BMP180;10205;49.678;6.560;2024-02-21T09:02:22;100360.00;;;12.10
20092;BMP180;10205;49.678;6.560;2024-02-21T09:04:49;100363.00;;;12.10
20092;BMP180;10205;49.678;6.560;2024-02-21T09:07:16;100357.00;;;12.20
20092;BMP180;10205;49.678;6.560;2024-02-21T09:09:43;100368.00;;;12.20
20092;BMP180;10205;49.678;6.560;2024-02-21T09:12:10;100356.00;;;12.20
20092;BMP180;10205;49.678;6.560;2024-02-21T09:14:37;100354.00;;;12.20
20092;BMP180;10205;49.678;6.560;2024-02-21T09:17:06;100350.00;;;12.20
20092;BMP180;10205;49.678;6.560;2024-02-21T09:19:35;100335.00;;;12.30
20092;BMP180;10205;49.678;6.560;2024-02-21T09:22:02;100323.00;;;12.30
20092;BMP180;10205;49.678;6.560;2024-02-21T09:24:29;100321.00;;;12.30
20092;BMP180;10205;49.678;6.560;2024-02-21T09:26:56;100322.00;;;12.40
20092;BMP180;10205;49.678;6.560;2024-02-21T09:29:23;100306.00;;;12.30
20092;BMP180;10205;49.678;6.560;2024-02-21T09:31:50;100303.00;;;12.40
20092;BMP180;10205;49.678;6.560;2024-02-21T09:34:19;100293.00;;;12.40
20092;BMP180;10205;49.678;6.560;2024-02-21T09:36:47;100293.00;;;12.50
20092;BMP180;10205;49.678;6.560;2024-02-21T09:39:14;100296.00;;;12.40
20092;BMP180;10205;49.678;6.560;2024-02-21T09:41:50;100288.00;;;12.40
20092;BMP180;10205;49.678;6.560;2024-02-21T09:44:21;100286.00;;;12.40
20092;BMP180;10205;49.678;6.560;2024-02-21T09:46:56;100285.00;;;12.50
20092;BMP180;10205;49.678;6.560;2024-02-21T09:49:30;100276.00;;;12.50
20092;BMP180;10205;49.678;6.560;2024-02-21T09:52:01;100278.00;;;12.50
20092;BMP180;10205;49.678;6.560;2024-02-21T09:54:30;100269.00;;;12.50
20092;BMP180;10205;49.678;6.560;2024-02-21T09:56:57;100271.00;;;12.50
20092;BMP180;10205;49.678;6.560;2024-02-21T09:59:25;100272.00;;;12.50
20092;BMP180;10205;49.678;6.560;2024-02-21T10:01:54;100264.00;;;12.50
20092;BMP180;10205;49.678;6.560;2024-02-21T10:04:21;100270.00;;;12.50
20092;BMP180;10205;49.678;6.560;2024-02-21T10:06:50;100257.00;;;12.60
20092;BMP180;10205;49.678;6.560;2024-02-21T10:09:21;100263.00;;;12.60
20092;BMP180;10205;49.678;6.560;2024-02-21T10:11:49;100276.00;;;12.60
20092;BMP180;10205;49.678;6.560;2024-02-21T10:14:17;100264.00;;;12.60
20092;BMP180;10205;49.678;6.560;2024-02-21T10:16:47;100261.00;;;12.60
20092;BMP180;10205;49.678;6.560;2024-02-21T10:19:18;100268.00;;;12.70
20092;BMP180;10205;49.678;6.560;2024-02-21T10:22:06;100261.00;;;12.60
20092;BMP180;10205;49.678;6.560;2024-02-21T10:24:34;100265.00;;;12.60
20092;BMP180;10205;49.678;6.560;2024-02-21T10:27:06;100256.00;;;12.70
20092;BMP180;10205;49.678;6.560;2024-02-21T10:29:34;100261.00;;;12.70
20092;BMP180;10205;49.678;6.560;2024-02-21T10:32:06;100258.00;;;12.70
20092;BMP180;10205;49.678;6.560;2024-02-21T10:34:33;100258.00;;;12.70
20092;BMP180;10205;49.678;6.560;2024-02-21T10:37:03;100247.00;;;12.70
20092;BMP180;10205;49.678;6.560;2024-02-21T10:39:32;100248.00;;;12.70
20092;BMP180;10205;49.678;6.560;2024-02-21T10:42:01;100249.00;;;12.70
20092;BMP180;10205;49.678;6.560;2024-02-21T10:44:31;100240.00;;;12.70
20092;BMP180;10205;49.678;6.560;2024-02-21T10:46:59;100235.00;;;12.80
20092;BMP180;10205;49.678;6.560;2024-02-21T10:49:27;100233.00;;;12.80
20092;BMP180;10205;49.678;6.560;2024-02-21T10:52:14;100230.00;;;12.80
20092;BMP180;10205;49.678;6.560;2024-02-21T10:54:48;100222.00;;;12.80
20092;BMP180;10205;49.678;6.560;2024-02-21T10:57:19;100220.00;;;12.80
20092;BMP180;10205;49.678;6.560;2024-02-21T10:59:48;100223.00;;;12.90
20092;BMP180;10205;49.678;6.560;2024-02-21T11:02:16;100230.00;;;12.90
20092;BMP180;10205;49.678;6.560;2024-02-21T11:04:44;100221.00;;;12.90
20092;BMP180;10205;49.678;6.560;2024-02-21T11:07:15;100217.00;;;12.90
20092;BMP180;10205;49.678;6.560;2024-02-21T11:09:51;100207.00;;;12.90
20092;BMP180;10205;49.678;6.560;2024-02-21T11:12:21;100204.00;;;12.90
20092;BMP180;10205;49.678;6.560;2024-02-21T11:14:48;100187.00;;;12.90
20092;BMP180;10205;49.678;6.560;2024-02-21T11:17:16;100202.00;;;13.00
20092;BMP180;10205;49.678;6.560;2024-02-21T11:19:43;100175.00;;;13.00
20092;BMP180;10205;49.678;6.560;2024-02-21T11:22:16;100174.00;;;13.00
20092;BMP180;10205;49.678;6.560;2024-02-21T11:24:44;100174.00;;;13.00
20092;BMP180;10205;49.678;6.560;2024-02-21T11:27:13;100164.00;;;13.00
20092;BMP180;10205;49.678;6.560;2024-02-21T11:29:42;100161.00;;;13.00
20092;BMP180;10205;49.678;6.560;2024-02-21T11:32:10;100146.00;;;13.00
20092;BMP180;10205;49.678;6.560;2024-02-21T11:34:38;100143.00;;;13.10
20092;BMP180;10205;49.678;6.560;2024-02-21T11:37:14;100135.00;;;13.10
20092;BMP180;10205;49.678;6.560;2024-02-21T11:39:42;100133.00;;;13.00
20092;BMP180;10205;49.678;6.560;2024-02-21T11:42:10;100126.00;;;13.10
20092;BMP180;10205;49.678;6.560;2024-02-21T11:44:38;100101.00;;;13.10
20092;BMP180;10205;49.678;6.560;2024-02-21T11:47:08;100107.00;;;13.10
20092;BMP180;10205;49.678;6.560;2024-02-21T11:49:38;100093.00;;;13.10
20092;BMP180;10205;49.678;6.560;2024-02-21T11:52:08;100080.00;;;13.10
20092;BMP180;10205;49.678;6.560;2024-02-21T11:54:36;100090.00;;;13.20
20092;BMP180;10205;49.678;6.560;2024-02-21T11:57:04;100078.00;;;13.20
20092;BMP180;10205;49.678;6.560;2024-02-21T11:59:32;100065.00;;;13.20
20092;BMP180;10205;49.678;6.560;2024-02-21T12:02:00;100061.00;;;13.20
20092;BMP180;10205;49.678;6.560;2024-02-21T12:04:29;100040.00;;;13.30
20092;BMP180;10205;49.678;6.560;2024-02-21T12:06:57;100041.00;;;13.30
20092;BMP180;10205;49.678;6.560;2024-02-21T12:09:25;100025.00;;;13.20
20092;BMP180;10205;49.678;6.560;2024-02-21T12:12:01;100025.00;;;13.30
20092;BMP180;10205;49.678;6.560;2024-02-21T12:14:30;100020.00;;;13.30
20092;BMP180;10205;49.678;6.560;2024-02-21T12:16:58;100038.00;;;13.30
20092;BMP180;10205;49.678;6.560;2024-02-21T12:19:28;100033.00;;;13.30
20092;BMP180;10205;49.678;6.560;2024-02-21T12:21:56;100027.00;;;13.30
20092;BMP180;10205;49.678;6.560;2024-02-21T12:24:25;99997.00;;;13.30
20092;BMP180;10205;49.678;6.560;2024-02-21T12:26:53;100007.00;;;13.30
20092;BMP180;10205;49.678;6.560;2024-02-21T12:29:22;99990.00;;;13.30
20092;BMP180;10205;49.678;6.560;2024-02-21T12:31:50;99995.00;;;13.30
20092;BMP180;10205;49.678;6.560;2024-02-21T12:34:17;100003.00;;;13.30
20092;BMP180;10205;49.678;6.560;2024-02-21T12:36:45;100003.00;;;13.30
20092;BMP180;10205;49.678;6.560;2024-02-21T12:39:13;99996.00;;;13.40
20092;BMP180;10205;49.678;6.560;2024-02-21T12:41:42;99984.00;;;13.40
20092;BMP180;10205;49.678;6.560;2024-02-21T12:44:10;99952.00;;;13.40
20092;BMP180;10205;49.678;6.560;2024-02-21T12:46:39;99950.00;;;13.40
20092;BMP180;10205;49.678;6.560;2024-02-21T12:49:07;99951.00;;;13.40
20092;BMP180;10205;49.678;6.560;2024-02-21T12:51:35;99951.00;;;13.40
20092;BMP180;10205;49.678;6.560;2024-02-21T12:54:03;99951.00;;;13.50
20092;BMP180;10205;49.678;6.560;2024-02-21T12:56:30;99939.00;;;13.50
20092;BMP180;10205;49.678;6.560;2024-02-21T12:58:58;99931.00;;;13.50
20092;BMP180;10205;49.678;6.560;2024-02-21T13:01:33;99924.00;;;13.60
20092;BMP180;10205;49.678;6.560;2024-02-21T13:04:02;99915.00;;;13.60
20092;BMP180;10205;49.678;6.560;2024-02-21T13:06:29;99914.00;;;13.70
20092;BMP180;10205;49.678;6.560;2024-02-21T13:08:56;99907.00;;;13.70
20092;BMP180;10205;49.678;6.560;2024-02-21T13:11:25;99911.00;;;13.70
20092;BMP180;10205;49.678;6.560;2024-02-21T13:13:54;99905.00;;;13.70
20092;BMP180;10205;49.678;6.560;2024-02-21T13:16:21;99887.00;;;13.70
20092;BMP180;10205;49.678;6.560;2024-02-21T13:18:48;99898.00;;;13.70
20092;BMP180;10205;49.678;6.560;2024-02-21T13:21:16;99872.00;;;13.70
20092;BMP180;10205;49.678;6.560;2024-02-21T13:23:44;99871.00;;;13.70
20092;BMP180;10205;49.678;6.560;2024-02-21T13:26:11;99855.00;;;13.70
20092;BMP180;10205;49.678;6.560;2024-02-21T13:28:38;99846.00;;;13.80
20092;BMP180;10205;49.678;6.560;2024-02-21T13:31:05;99844.00;;;13.80
20092;BMP180;10205;49.678;6.560;2024-02-21T13:33:32;99845.00;;;13.80
20092;BMP180;10205;49.678;6.560;2024-02-21T13:35:59;99833.00;;;13.80
20092;BMP180;10205;49.678;6.560;2024-02-21T13:38:29;99829.00;;;13.80
20092;BMP180;10205;49.678;6.560;2024-02-21T13:40:56;99817.00;;;13.90
20092;BMP180;10205;49.678;6.560;2024-02-21T13:43:23;99806.00;;;13.90
20092;BMP180;10205;49.678;6.560;2024-02-21T13:45:57;99786.00;;;13.90
20092;BMP180;10205;49.678;6.560;2024-02-21T13:48:24;99786.00;;;13.90
20092;BMP180;10205;49.678;6.560;2024-02-21T13:50:52;99774.00;;;13.90
20092;BMP180;10205;49.678;6.560;2024-02-21T13:53:21;99772.00;;;13.90
20092;BMP180;10205;49.678;6.560;2024-02-21T13:55:50;99777.00;;;13.90
20092;BMP180;10205;49.678;6.560;2024-02-21T13:58:17;99767.00;;;13.90
20092;BMP180;10205;49.678;6.560;2024-02-21T14:00:44;99758.00;;;13.90
20092;BMP180;10205;49.678;6.560;2024-02-21T14:03:11;99765.00;;;13.90